To NAV CANADA Home Page Login to a new session Search on AWWS site Feedback and Comments Disclaimer Vers la page française équivalente Tips FAQ What's new on the site To the Forecasts and Observations / NOTAM section To "File a Flight Plan" website Publications and other links Update of the User's profile FIC Telephone Numbers My Weather Data Folder Route Weather Data Regional Weather Data Local Weather Data To the Forecasts and Observations / NOTAM section
Request Generated 06/26/2017 at 03:37:02 UTC . Weather information available at that time is displayed.

METAR/TAF

QUEBEC/JEAN LESAGE INTL/QC    

METAR CYQB 260300Z 26005KT 15SM FEW018 SCT120 BKN200 14/12 A2983 RMK
SC2AC2CI2 SLP103 DENSITY ALT 300FT=
METAR CYQB 260200Z 21006KT 15SM FEW040 FEW120 BKN200 14/12 A2983 RMK
SC1AC2CI3 SC TR SLP104 DENSITY ALT 300FT=
METAR CYQB 260100Z 23007KT 15SM FEW120 BKN200 15/11 A2982 RMK AC2CI3
SLP100 DENSITY ALT 500FT=

TAF CYQB 252338Z 2600/2624 25010KT P6SM FEW040 BKN100
FM260200 24007KT P6SM SCT012 BKN050 TEMPO 2602/2606 BKN012 OVC050
FM260600 VRB03KT 6SM BR BKN070 PROB30 2606/2611 1SM BR
FM261100 VRB03KT P6SM FEW020 SCT070
FM261400 25007KT P6SM FEW060
BECMG 2616/2617 25012KT
RMK NXT FCST BY 260600Z=
Your time UTC time
Weather data provided by Environment Canada and NAV CANADA